createdAt,value
2023-04-24T00:01:44.057Z,96597.03
2023-04-24T00:04:12.195Z,96584.75
2023-04-24T00:06:39.933Z,96593.28
2023-04-24T00:09:07.366Z,96601.28
2023-04-24T00:11:34.951Z,96593.81
2023-04-24T00:14:02.537Z,96590.59
2023-04-24T00:16:30.185Z,96589.56
2023-04-24T00:18:57.728Z,96589.00
2023-04-24T00:21:26.785Z,96589.81
2023-04-24T00:23:54.588Z,96583.66
2023-04-24T00:26:22.075Z,96572.72
2023-04-24T00:28:49.701Z,96563.88
2023-04-24T00:31:17.289Z,96560.69
2023-04-24T00:33:44.741Z,96555.91
2023-04-24T00:36:12.216Z,96552.97
2023-04-24T00:38:39.654Z,96547.34
2023-04-24T00:41:07.711Z,96558.03
2023-04-24T00:43:36.118Z,96586.09
2023-04-24T00:46:03.695Z,96605.31
2023-04-24T00:48:32.764Z,96592.50
2023-04-24T00:51:00.464Z,96589.03
2023-04-24T00:53:28.066Z,96589.28
2023-04-24T00:55:55.737Z,96584.22
2023-04-24T00:58:24.059Z,96582.88
2023-04-24T01:00:54.311Z,96589.56
2023-04-24T01:03:23.968Z,96594.38
2023-04-24T01:05:52.400Z,96592.25
2023-04-24T01:08:21.214Z,96590.38
2023-04-24T01:10:49.796Z,96589.28
2023-04-24T01:13:20.964Z,96586.88
2023-04-24T01:15:48.819Z,96588.50
2023-04-24T01:18:16.666Z,96579.91
2023-04-24T01:20:46.180Z,96593.31
2023-04-24T01:23:13.731Z,96588.75
2023-04-24T01:25:41.524Z,96591.97
2023-04-24T01:28:09.207Z,96591.16
2023-04-24T01:30:37.435Z,96593.56
2023-04-24T01:33:05.228Z,96584.75
2023-04-24T01:35:33.239Z,96594.34
2023-04-24T01:38:00.969Z,96588.47
2023-04-24T01:40:28.368Z,96584.72
2023-04-24T01:42:59.563Z,96590.56
2023-04-24T01:45:27.244Z,96593.00
2023-04-24T01:47:54.799Z,96592.69
2023-04-24T01:50:22.394Z,96591.09
2023-04-24T01:52:49.888Z,96586.84
2023-04-24T01:55:17.951Z,96586.56
2023-04-24T01:57:46.965Z,96580.13
2023-04-24T02:00:14.665Z,96584.41
2023-04-24T02:02:44.253Z,96576.91
2023-04-24T02:05:13.368Z,96572.94
2023-04-24T02:07:41.044Z,96566.22
2023-04-24T02:10:10.553Z,96572.91
2023-04-24T02:12:43.453Z,96571.84
2023-04-24T02:15:11.605Z,96563.28
2023-04-24T02:17:39.532Z,96566.75
2023-04-24T02:20:08.778Z,96564.91
2023-04-24T02:22:36.290Z,96564.38
2023-04-24T02:25:04.083Z,96568.38
2023-04-24T02:27:31.553Z,96572.94
2023-04-24T02:29:59.027Z,96572.16
2023-04-24T02:32:26.485Z,96567.09
2023-04-24T02:34:54.130Z,96572.44
2023-04-24T02:37:21.854Z,96577.78
2023-04-24T02:39:49.360Z,96569.22
2023-04-24T02:42:16.971Z,96577.25
2023-04-24T02:44:44.489Z,96574.03
2023-04-24T02:47:12.058Z,96574.81
2023-04-24T02:49:39.579Z,96576.41
2023-04-24T02:52:07.073Z,96583.91
2023-04-24T02:54:34.591Z,96576.44
2023-04-24T02:57:02.386Z,96579.13
2023-04-24T02:59:30.951Z,96578.56
2023-04-24T03:01:58.571Z,96571.91
2023-04-24T03:04:26.734Z,96580.47
2023-04-24T03:06:55.875Z,96589.03
2023-04-24T03:09:23.401Z,96585.81
2023-04-24T03:11:51.249Z,96582.63
2023-04-24T03:14:18.805Z,96582.09
2023-04-24T03:16:46.494Z,96574.06
2023-04-24T03:19:14.172Z,96580.19
2023-04-24T03:22:04.791Z,96576.75
2023-04-24T03:24:33.445Z,96572.47
2023-04-24T03:27:01.348Z,96565.78
2023-04-24T03:29:56.630Z,96577.00
2023-04-24T03:32:31.529Z,96578.09
2023-04-24T03:34:59.265Z,96581.56
2023-04-24T03:37:27.551Z,96584.78
2023-04-24T03:40:08.231Z,96574.06
2023-04-24T03:42:39.237Z,96582.63
2023-04-24T03:45:08.142Z,96586.38
2023-04-24T03:47:37.968Z,96583.16
2023-04-24T03:50:07.232Z,96582.63
2023-04-24T03:52:35.182Z,96584.22
2023-04-24T03:55:03.996Z,96593.81
2023-04-24T03:57:36.940Z,96590.91
2023-04-24T04:00:14.139Z,96595.69
2023-04-24T04:02:49.815Z,96603.72
2023-04-24T04:05:17.508Z,96598.34
2023-04-24T04:07:44.977Z,96606.38
2023-04-24T04:10:13.117Z,96607.19
2023-04-24T04:12:40.630Z,96611.72
2023-04-24T04:15:08.816Z,96616.28
2023-04-24T04:17:36.688Z,96614.66
2023-04-24T04:20:11.140Z,96606.66
2023-04-24T04:22:43.434Z,96609.59
2023-04-24T04:25:14.723Z,96607.97
2023-04-24T04:27:43.478Z,96595.41
2023-04-24T04:30:13.609Z,96602.88
2023-04-24T04:32:53.644Z,96599.66
2023-04-24T04:35:23.195Z,96608.78
2023-04-24T04:37:52.678Z,96600.47
2023-04-24T04:40:38.865Z,96605.03
2023-04-24T04:43:08.098Z,96601.00
2023-04-24T04:45:44.485Z,96598.34
2023-04-24T04:48:23.738Z,96593.53
2023-04-24T04:50:52.106Z,96601.56
2023-04-24T04:53:21.650Z,96607.16
2023-04-24T04:55:49.241Z,96598.59
2023-04-24T04:58:17.921Z,96595.91
2023-04-24T05:00:47.394Z,96611.16
2023-04-24T05:03:28.716Z,96607.16
2023-04-24T05:06:01.942Z,96610.06
2023-04-24T05:08:32.759Z,96601.47
2023-04-24T05:11:00.963Z,96605.16
2023-04-24T05:13:39.126Z,96609.97
2023-04-24T05:16:19.678Z,96606.97
2023-04-24T05:18:48.582Z,96606.06
2023-04-24T05:21:19.745Z,96612.97
2023-04-24T05:23:51.301Z,96612.94
2023-04-24T05:26:28.252Z,96611.28
2023-04-24T05:28:56.966Z,96606.41
2023-04-24T05:31:24.520Z,96613.69
2023-04-24T05:33:52.548Z,96609.91
2023-04-24T05:36:20.024Z,96606.13
2023-04-24T05:38:47.600Z,96607.22
2023-04-24T05:41:16.312Z,96608.91
2023-04-24T05:43:43.808Z,96613.72
2023-04-24T05:46:13.105Z,96611.59
2023-04-24T05:48:40.647Z,96611.59
2023-04-24T05:51:08.045Z,96616.66
2023-04-24T05:53:35.642Z,96616.41
2023-04-24T05:56:03.342Z,96616.41
2023-04-24T05:58:32.132Z,96610.81
2023-04-24T06:01:03.009Z,96609.13
2023-04-24T06:03:30.734Z,96608.06
2023-04-24T06:05:58.312Z,96610.47
2023-04-24T06:08:26.713Z,96609.84
2023-04-24T06:10:54.195Z,96613.63
2023-04-24T06:13:23.064Z,96619.41
2023-04-24T06:16:19.758Z,96619.84
2023-04-24T06:18:54.492Z,96621.09
2023-04-24T06:21:22.263Z,96625.56
2023-04-24T06:23:50.787Z,96623.19
2023-04-24T06:26:18.291Z,96627.34
2023-04-24T06:28:45.831Z,96623.91
2023-04-24T06:31:13.324Z,96631.53
2023-04-24T06:33:41.322Z,96632.66
2023-04-24T06:36:10.792Z,96631.72
2023-04-24T06:38:38.423Z,96633.84
2023-04-24T06:41:06.373Z,96641.81
2023-04-24T06:43:34.272Z,96640.16
2023-04-24T06:46:01.747Z,96631.84
2023-04-24T06:48:29.193Z,96634.91
2023-04-24T06:50:56.660Z,96636.50
2023-04-24T06:53:24.152Z,96630.47
2023-04-24T06:55:51.651Z,96632.50
2023-04-24T06:58:19.161Z,96633.72
2023-04-24T07:00:46.813Z,96639.59
2023-04-24T07:03:14.489Z,96633.53
2023-04-24T07:05:42.781Z,96636.97
2023-04-24T07:08:12.536Z,96635.56
2023-04-24T07:10:40.308Z,96640.22
2023-04-24T07:13:08.258Z,96637.41
2023-04-24T07:15:35.929Z,96649.94
2023-04-24T07:18:05.613Z,96654.97
2023-04-24T07:20:34.514Z,96650.03
2023-04-24T07:23:02.309Z,96651.25
2023-04-24T07:25:29.834Z,96650.03
2023-04-24T07:27:57.293Z,96649.88
2023-04-24T07:30:24.862Z,96651.03
2023-04-24T07:32:52.670Z,96654.88
2023-04-24T07:35:21.106Z,96649.66
2023-04-24T07:37:49.109Z,96664.63
2023-04-24T07:40:18.069Z,96655.09
2023-04-24T07:42:45.720Z,96662.09
2023-04-24T07:45:13.166Z,96653.72
2023-04-24T07:47:41.044Z,96657.66
2023-04-24T07:50:08.856Z,96660.09
2023-04-24T07:52:36.311Z,96660.00
2023-04-24T07:55:04.419Z,96670.59
2023-04-24T07:57:31.927Z,96671.25
2023-04-24T07:59:59.404Z,96664.06
2023-04-24T08:02:28.208Z,96671.22
2023-04-24T08:04:56.995Z,96668.88
2023-04-24T08:07:25.765Z,96673.16
2023-04-24T08:09:53.224Z,96667.19
2023-04-24T08:12:20.782Z,96666.22
2023-04-24T08:14:48.307Z,96666.47
2023-04-24T08:17:15.897Z,96661.22
2023-04-24T08:19:48.689Z,96664.97
2023-04-24T08:22:16.711Z,96664.97
2023-04-24T08:24:44.975Z,96660.97
2023-04-24T08:27:12.491Z,96669.09
2023-04-24T08:29:39.972Z,96670.94
2023-04-24T08:32:07.879Z,96665.69
2023-04-24T08:34:35.646Z,96665.41
2023-04-24T08:37:04.291Z,96659.66
2023-04-24T08:39:32.109Z,96664.75
2023-04-24T08:42:06.510Z,96666.75
2023-04-24T08:44:34.493Z,96664.78
2023-04-24T08:47:03.671Z,96666.47
2023-04-24T08:49:31.736Z,96669.94
2023-04-24T08:52:00.909Z,96668.06
2023-04-24T08:54:29.925Z,96670.78
2023-04-24T08:57:07.705Z,96664.78
2023-04-24T08:59:36.504Z,96669.66
2023-04-24T09:02:05.814Z,96663.59
2023-04-24T09:04:35.030Z,96654.72
2023-04-24T09:07:04.470Z,96657.22
2023-04-24T09:09:33.859Z,96658.69
2023-04-24T09:12:01.717Z,96659.13
2023-04-24T09:14:32.367Z,96658.94
2023-04-24T09:16:59.977Z,96666.16
2023-04-24T09:19:27.511Z,96668.41
2023-04-24T09:21:55.462Z,96669.16
2023-04-24T09:24:26.124Z,96677.16
2023-04-24T09:27:00.158Z,96672.34
2023-04-24T09:29:28.291Z,96667.13
2023-04-24T09:31:55.973Z,96666.56
2023-04-24T09:34:25.170Z,96664.34
2023-04-24T09:36:53.401Z,96654.59
2023-04-24T09:39:21.431Z,96663.25
2023-04-24T09:41:58.947Z,96657.56
2023-04-24T09:44:28.760Z,96657.56
2023-04-24T09:47:01.757Z,96658.16
2023-04-24T09:49:31.107Z,96665.50
2023-04-24T09:52:12.113Z,96662.38
2023-04-24T09:54:41.630Z,96660.69
2023-04-24T09:57:10.366Z,96669.78
2023-04-24T09:59:44.245Z,96660.69
2023-04-24T10:02:20.814Z,96666.56
2023-04-24T10:05:00.882Z,96665.13
2023-04-24T10:07:28.930Z,96661.75
2023-04-24T10:09:56.783Z,96657.25
2023-04-24T10:12:26.138Z,96664.44
2023-04-24T10:14:54.395Z,96664.44
2023-04-24T10:17:22.954Z,96672.94
2023-04-24T10:19:50.692Z,96665.03
2023-04-24T10:22:18.987Z,96665.97
2023-04-24T10:24:48.551Z,96660.56
2023-04-24T10:27:16.733Z,96656.72
2023-04-24T10:29:45.603Z,96656.16
2023-04-24T10:32:13.139Z,96663.47
2023-04-24T10:34:40.832Z,96653.66
2023-04-24T10:37:08.429Z,96660.44
2023-04-24T10:39:36.519Z,96655.56
2023-04-24T10:42:16.492Z,96658.50
2023-04-24T10:44:44.183Z,96652.03
2023-04-24T10:47:15.602Z,96650.38
2023-04-24T10:49:43.859Z,96657.41
2023-04-24T10:52:11.973Z,96659.06
2023-04-24T10:54:45.933Z,96652.16
2023-04-24T10:57:19.576Z,96653.09
2023-04-24T10:59:48.647Z,96653.16
2023-04-24T11:02:17.689Z,96653.16
2023-04-24T11:04:46.373Z,96660.56
2023-04-24T11:07:14.150Z,96657.38
2023-04-24T11:09:44.266Z,96657.16
2023-04-24T11:12:13.950Z,96657.88
2023-04-24T11:15:02.564Z,96661.78
2023-04-24T11:17:39.316Z,96657.06
2023-04-24T11:20:26.101Z,96665.50
2023-04-24T11:22:56.313Z,96664.75
2023-04-24T11:25:24.613Z,96665.97
2023-04-24T11:28:04.920Z,96670.75
2023-04-24T11:30:34.826Z,96668.06
2023-04-24T11:33:07.171Z,96673.78
2023-04-24T11:35:42.219Z,96673.34
2023-04-24T11:40:42.920Z,96673.19
2023-04-24T11:43:12.245Z,96674.13
2023-04-24T11:45:48.915Z,96672.44
2023-04-24T11:48:22.554Z,96676.19
2023-04-24T11:50:52.205Z,96676.56
2023-04-24T11:53:22.655Z,96667.94
2023-04-24T11:55:50.437Z,96672.44
2023-04-24T11:58:22.999Z,96668.44
2023-04-24T12:00:58.737Z,96667.25
2023-04-24T12:03:26.999Z,96663.06
2023-04-24T12:06:06.678Z,96667.88
2023-04-24T12:08:37.202Z,96667.97
2023-04-24T12:11:08.361Z,96682.44
2023-04-24T12:13:36.787Z,96675.44
2023-04-24T12:16:05.938Z,96677.47
2023-04-24T12:18:33.538Z,96663.41
2023-04-24T12:21:19.570Z,96667.53
2023-04-24T12:23:49.670Z,96657.16
2023-04-24T12:26:21.104Z,96647.81
2023-04-24T12:28:50.883Z,96648.22
2023-04-24T12:31:18.594Z,96650.97
2023-04-24T12:33:46.200Z,96655.53
2023-04-24T12:36:14.021Z,96644.88
2023-04-24T12:38:46.008Z,96655.44
2023-04-24T12:41:15.429Z,96657.88
2023-04-24T12:43:56.627Z,96651.44
2023-04-24T12:46:24.290Z,96648.38
2023-04-24T12:48:51.806Z,96653.91
2023-04-24T12:51:19.385Z,96646.25
2023-04-24T12:53:46.857Z,96654.63
2023-04-24T12:56:14.403Z,96652.91
2023-04-24T12:58:41.861Z,96648.47
2023-04-24T13:01:09.472Z,96656.00
2023-04-24T13:03:37.110Z,96656.41
2023-04-24T13:06:04.780Z,96662.88
2023-04-24T13:08:32.294Z,96658.28
2023-04-24T13:10:59.785Z,96661.19
2023-04-24T13:13:27.416Z,96657.59
2023-04-24T13:15:54.885Z,96670.66
2023-04-24T13:18:23.098Z,96663.69
2023-04-24T13:20:51.132Z,96644.69
2023-04-24T13:23:18.601Z,96651.56
2023-04-24T13:25:46.132Z,96655.25
2023-04-24T13:28:13.743Z,96643.41
2023-04-24T13:30:41.282Z,96650.47
2023-04-24T13:33:08.785Z,96651.09
2023-04-24T13:35:36.299Z,96643.94
2023-04-24T13:38:07.110Z,96641.75
2023-04-24T13:40:34.734Z,96650.97
2023-04-24T13:43:02.631Z,96646.63
2023-04-24T13:45:30.695Z,96641.44
2023-04-24T13:47:58.498Z,96645.81
2023-04-24T13:50:26.848Z,96634.06
2023-04-24T13:52:55.284Z,96641.69
2023-04-24T13:55:22.830Z,96644.41
2023-04-24T13:57:50.451Z,96638.69
2023-04-24T14:00:19.041Z,96626.06
2023-04-24T14:02:46.835Z,96639.00
2023-04-24T14:05:16.327Z,96662.91
2023-04-24T14:07:43.865Z,96656.78
2023-04-24T14:10:11.661Z,96646.59
2023-04-24T14:12:39.326Z,96652.28
2023-04-24T14:15:07.611Z,96649.28
2023-04-24T14:17:35.354Z,96656.53
2023-04-24T14:20:03.027Z,96656.72
2023-04-24T14:22:30.581Z,96656.69
2023-04-24T14:24:59.084Z,96643.69
2023-04-24T14:27:27.622Z,96643.88
2023-04-24T14:29:55.163Z,96639.00
2023-04-24T14:32:22.786Z,96645.75
2023-04-24T14:34:50.655Z,96659.06
2023-04-24T14:37:18.219Z,96657.25
2023-04-24T14:39:56.165Z,96654.25
2023-04-24T14:42:29.903Z,96651.22
2023-04-24T14:44:57.308Z,96664.88
2023-04-24T14:47:24.896Z,96662.50
2023-04-24T14:49:52.954Z,96647.81
2023-04-24T14:52:21.206Z,96656.03
2023-04-24T14:54:48.710Z,96653.22
2023-04-24T14:57:16.673Z,96647.94
2023-04-24T14:59:44.194Z,96647.72
2023-04-24T15:02:16.658Z,96656.28
2023-04-24T15:04:45.127Z,96676.06
2023-04-24T15:07:12.845Z,96661.06
2023-04-24T15:09:40.904Z,96671.38
2023-04-24T15:12:09.194Z,96669.28
2023-04-24T15:14:36.758Z,96676.59
2023-04-24T15:17:04.338Z,96684.41
2023-04-24T15:19:32.451Z,96686.47
2023-04-24T15:22:00.069Z,96682.16
2023-04-24T15:24:27.562Z,96690.31
2023-04-24T15:26:57.825Z,96689.03
2023-04-24T15:29:27.372Z,96686.16
2023-04-24T15:31:54.811Z,96687.09
2023-04-24T15:34:22.322Z,96688.50
2023-04-24T15:36:49.877Z,96694.22
2023-04-24T15:39:17.368Z,96702.41
2023-04-24T15:41:44.900Z,96710.91
2023-04-24T15:44:12.404Z,96707.66
2023-04-24T15:46:39.939Z,96714.56
2023-04-24T15:49:07.451Z,96714.50
2023-04-24T15:51:34.950Z,96719.91
2023-04-24T15:54:02.485Z,96725.28
2023-04-24T15:56:31.462Z,96729.00
2023-04-24T15:58:59.169Z,96728.38
2023-04-24T16:01:26.727Z,96720.94
2023-04-24T16:03:54.453Z,96728.25
2023-04-24T16:06:22.271Z,96736.72
2023-04-24T16:08:50.588Z,96733.97
2023-04-24T16:11:18.121Z,96737.03
2023-04-24T16:13:45.590Z,96733.41
2023-04-24T16:16:13.679Z,96729.34
2023-04-24T16:18:41.215Z,96734.31
2023-04-24T16:21:09.581Z,96737.78
2023-04-24T16:23:37.033Z,96738.13
2023-04-24T16:26:04.637Z,96748.16
2023-04-24T16:28:32.100Z,96738.47
2023-04-24T16:30:59.691Z,96740.69
2023-04-24T16:33:27.184Z,96747.16
2023-04-24T16:35:55.622Z,96749.59
2023-04-24T16:38:25.137Z,96755.72
2023-04-24T16:40:52.647Z,96753.06
2023-04-24T16:43:20.116Z,96756.06
2023-04-24T16:45:47.591Z,96752.31
2023-04-24T16:48:15.120Z,96752.31
2023-04-24T16:50:42.628Z,96750.41
2023-04-24T16:53:10.196Z,96754.19
2023-04-24T16:55:37.970Z,96761.44
2023-04-24T16:58:05.516Z,96757.72
2023-04-24T17:00:33.134Z,96755.09
2023-04-24T17:03:01.019Z,96766.38
2023-04-24T17:05:28.727Z,96769.31
2023-04-24T17:07:56.643Z,96774.16
2023-04-24T17:10:24.260Z,96768.84
2023-04-24T17:12:51.887Z,96775.53
2023-04-24T17:15:19.321Z,96779.31
2023-04-24T17:17:46.919Z,96784.91
2023-04-24T17:20:22.107Z,96780.13
2023-04-24T17:22:51.593Z,96793.75
2023-04-24T17:25:19.196Z,96799.63
2023-04-24T17:27:46.799Z,96795.63
2023-04-24T17:30:14.913Z,96793.75
2023-04-24T17:32:42.485Z,96800.97
2023-04-24T17:35:10.837Z,96803.66
2023-04-24T17:37:38.661Z,96807.41
2023-04-24T17:40:07.053Z,96809.53
2023-04-24T17:42:37.635Z,96820.50
2023-04-24T17:45:06.517Z,96820.47
2023-04-24T17:47:34.130Z,96829.00
2023-04-24T17:50:01.648Z,96831.66
2023-04-24T17:52:29.109Z,96830.59
2023-04-24T17:54:56.585Z,96831.66
2023-04-24T17:57:24.133Z,96839.66
2023-04-24T17:59:51.687Z,96840.91
2023-04-24T18:02:19.249Z,96843.88
2023-04-24T18:04:47.046Z,96842.25
2023-04-24T18:07:14.571Z,96849.19
2023-04-24T18:09:42.211Z,96845.47
2023-04-24T18:12:10.683Z,96856.44
2023-04-24T18:14:38.267Z,96860.41
2023-04-24T18:17:06.699Z,96862.00
2023-04-24T18:19:34.247Z,96867.09
2023-04-24T18:22:01.792Z,96872.72
2023-04-24T18:24:29.282Z,96872.72
2023-04-24T18:26:57.722Z,96876.34
2023-04-24T18:29:25.229Z,96882.78
2023-04-24T18:31:53.102Z,96884.38
2023-04-24T18:34:20.653Z,96875.75
2023-04-24T18:36:48.179Z,96877.81
2023-04-24T18:39:15.613Z,96890.66
2023-04-24T18:41:43.171Z,96883.94
2023-04-24T18:44:11.744Z,96886.59
2023-04-24T18:46:41.600Z,96893.00
2023-04-24T18:49:09.244Z,96896.94
2023-04-24T18:51:50.328Z,96898.78
2023-04-24T18:54:20.859Z,96906.97
2023-04-24T18:56:48.204Z,96915.53
2023-04-24T18:59:16.093Z,96908.06
2023-04-24T19:01:43.806Z,96911.06
2023-04-24T19:04:11.678Z,96906.34
2023-04-24T19:06:39.244Z,96920.06
2023-04-24T19:09:06.930Z,96928.69
2023-04-24T19:11:34.572Z,96927.28
2023-04-24T19:14:04.305Z,96932.31
2023-04-24T19:16:32.016Z,96942.38
2023-04-24T19:18:59.539Z,96947.72
2023-04-24T19:21:28.146Z,96949.81
2023-04-24T19:23:57.096Z,96962.09
2023-04-24T19:26:25.928Z,96951.13
2023-04-24T19:28:53.828Z,96947.66
2023-04-24T19:31:21.587Z,96954.22
2023-04-24T19:33:49.189Z,96957.09
2023-04-24T19:36:19.669Z,96969.25
2023-04-24T19:38:47.956Z,96969.84
2023-04-24T19:41:16.161Z,96974.00
2023-04-24T19:43:43.820Z,96979.78
2023-04-24T19:46:11.922Z,96977.84
2023-04-24T19:48:39.553Z,96971.09
2023-04-24T19:51:07.059Z,96966.31
2023-04-24T19:53:34.554Z,96973.31
2023-04-24T19:56:01.998Z,96974.00
2023-04-24T19:58:32.550Z,96974.75
2023-04-24T20:01:01.229Z,96975.41
2023-04-24T20:03:33.293Z,96976.94
2023-04-24T20:06:01.632Z,96977.94
2023-04-24T20:08:29.223Z,96973.09
2023-04-24T20:10:58.352Z,96984.47
2023-04-24T20:13:31.968Z,96981.25
2023-04-24T20:16:00.427Z,96974.47
2023-04-24T20:18:28.065Z,96978.69
2023-04-24T20:20:58.269Z,96986.84
2023-04-24T20:23:26.675Z,96968.94
2023-04-24T20:25:58.415Z,96983.03
2023-04-24T20:28:30.437Z,96977.16
2023-04-24T20:30:59.406Z,96970.78
2023-04-24T20:33:28.677Z,96983.44
2023-04-24T20:35:56.659Z,96985.28
2023-04-24T20:38:24.519Z,96983.91
2023-04-24T20:43:28.039Z,96981.41
2023-04-24T20:45:58.293Z,96986.19
2023-04-24T20:48:26.867Z,96980.53
2023-04-24T20:50:54.912Z,96989.31
2023-04-24T20:53:22.565Z,96988.44
2023-04-24T20:55:50.129Z,96984.41
2023-04-24T20:58:21.232Z,96994.22
2023-04-24T21:00:48.961Z,96994.41
2023-04-24T21:03:16.604Z,96996.00
2023-04-24T21:05:44.131Z,96992.44
2023-04-24T21:08:12.126Z,97000.34
2023-04-24T21:10:39.615Z,96994.81
2023-04-24T21:13:07.112Z,96993.69
2023-04-24T21:15:35.071Z,96995.78
2023-04-24T21:18:03.536Z,96992.47
2023-04-24T21:20:31.142Z,96992.03
2023-04-24T21:22:58.571Z,96997.03
2023-04-24T21:25:26.469Z,96999.56
2023-04-24T21:27:53.955Z,96991.38
2023-04-24T21:30:22.193Z,96994.38
2023-04-24T21:32:49.760Z,96991.47
2023-04-24T21:35:17.354Z,96987.56
2023-04-24T21:37:45.003Z,96982.69
2023-04-24T21:40:12.631Z,96979.50
2023-04-24T21:42:40.180Z,96983.09
2023-04-24T21:45:08.349Z,96975.34
2023-04-24T21:47:36.158Z,96974.06
2023-04-24T21:50:04.957Z,96975.59
2023-04-24T21:52:32.417Z,96983.63
2023-04-24T21:54:59.882Z,96980.03
2023-04-24T21:57:28.669Z,96977.16
2023-04-24T21:59:56.466Z,96972.53
2023-04-24T22:02:24.017Z,96980.03
2023-04-24T22:04:53.115Z,96976.41
2023-04-24T22:07:20.715Z,96973.88
2023-04-24T22:09:48.243Z,96974.19
2023-04-24T22:12:16.045Z,96966.06
2023-04-24T22:14:44.014Z,96964.47
2023-04-24T22:17:11.593Z,96963.66
2023-04-24T22:19:40.629Z,96967.81
2023-04-24T22:22:08.143Z,96968.41
2023-04-24T22:24:36.731Z,96972.91
2023-04-24T22:27:50.956Z,96970.72
2023-04-24T22:30:18.601Z,96974.19
2023-04-24T22:32:46.228Z,96967.59
2023-04-24T22:35:13.812Z,96971.63
2023-04-24T22:37:41.421Z,96970.47
2023-04-24T22:40:10.253Z,96968.88
2023-04-24T22:42:37.833Z,96960.78
2023-04-24T22:45:08.130Z,96967.16
2023-04-24T22:47:35.738Z,96970.63
2023-04-24T22:50:03.548Z,96969.25
2023-04-24T22:52:31.108Z,96974.50
2023-04-24T22:54:58.683Z,96969.19
2023-04-24T22:57:26.222Z,96964.34
2023-04-24T22:59:54.458Z,96971.16
2023-04-24T23:02:23.327Z,96970.22
2023-04-24T23:04:50.978Z,96970.94
2023-04-24T23:07:18.413Z,96976.38
2023-04-24T23:09:46.382Z,96978.28
2023-04-24T23:12:13.788Z,96982.66
2023-04-24T23:14:41.325Z,96985.34
2023-04-24T23:17:08.861Z,96988.13
2023-04-24T23:19:36.353Z,96979.84
2023-04-24T23:22:03.919Z,96976.81
2023-04-24T23:24:31.423Z,96972.81
2023-04-24T23:26:58.923Z,96975.00
2023-04-24T23:29:26.679Z,96968.50
2023-04-24T23:31:54.140Z,96969.44
2023-04-24T23:34:21.786Z,96964.72
2023-04-24T23:36:50.745Z,96972.44
2023-04-24T23:39:18.523Z,96966.19
2023-04-24T23:41:46.362Z,96974.16
2023-04-24T23:44:13.825Z,96962.53
2023-04-24T23:46:41.300Z,96972.09
2023-04-24T23:49:09.279Z,96964.72
2023-04-24T23:51:36.981Z,96958.00
2023-04-24T23:54:04.674Z,96952.50
2023-04-24T23:56:32.114Z,96963.00
2023-04-24T23:58:59.603Z,96954.91
